DABB/AAE METAR and TAF weather

Enter ICAO airport designator
Station Type Date Time Source
DABB METAR 2019/04/19 22:00 UTC NOAA

DABB 192200Z 14005KT 9999 FEW026 SCT200 20/10 Q1013


Station Type Date Time Source
DABB Decoded METAR 2019/04/19 22:00 UTC NOAA

Annaba, Algeria (DABB) 36-50N 007-49E 4M
Apr 19, 2019 - 06:00 PM EDT / 2019.04.19 2200 UTC
Wind: from the SE (140 degrees) at 6 MPH (5 KT):0
Visibility: greater than 7 mile(s):0
Sky conditions: partly cloudy
Temperature: 68 F (20 C)
Dew Point: 50 F (10 C)
Relative Humidity: 52%
Pressure (altimeter): 29.91 in. Hg (1013 hPa)
ob: DABB 192200Z 14005KT 9999 FEW026 SCT200 20/10 Q1013
cycle: 22

Station Type Date Time Source
DABB TAF 2019/04/19 18:33 UTC NOAA

TAF DABB 191700Z 1918/2018 11014KT 6000 FEW030 BKN200
BECMG 1922/1924 12008KT
BECMG 2006/2008 14018KT
TEMPO 2009/2016 14018G28KT PROB40
TEMPO 2013/2018 FEW023TCU

Example: see airport list